sensor_id;sensor_type;location;lat;lon;timestamp;P1;durP1;ratioP1;P2;durP2;ratioP2
70369;SDS011;57790;51.356;-2.906;2024-02-04T00:01:12;7.43;;;1.10;;
70369;SDS011;57790;51.356;-2.906;2024-02-04T00:04:13;6.47;;;1.40;;
70369;SDS011;57790;51.356;-2.906;2024-02-04T00:07:13;9.10;;;1.50;;
70369;SDS011;57790;51.356;-2.906;2024-02-04T00:10:14;5.43;;;1.23;;
70369;SDS011;57790;51.356;-2.906;2024-02-04T00:13:15;7.43;;;0.98;;
70369;SDS011;57790;51.356;-2.906;2024-02-04T00:16:16;9.23;;;1.20;;
70369;SDS011;57790;51.356;-2.906;2024-02-04T00:19:16;9.73;;;1.40;;
70369;SDS011;57790;51.356;-2.906;2024-02-04T00:22:17;8.00;;;1.40;;
70369;SDS011;57790;51.356;-2.906;2024-02-04T00:25:20;7.47;;;1.40;;
70369;SDS011;57790;51.356;-2.906;2024-02-04T00:28:20;7.63;;;1.13;;
70369;SDS011;57790;51.356;-2.906;2024-02-04T00:31:21;8.75;;;1.73;;
70369;SDS011;57790;51.356;-2.906;2024-02-04T00:34:30;7.43;;;0.93;;
70369;SDS011;57790;51.356;-2.906;2024-02-04T00:37:31;11.23;;;1.60;;
70369;SDS011;57790;51.356;-2.906;2024-02-04T00:40:31;8.83;;;1.20;;
70369;SDS011;57790;51.356;-2.906;2024-02-04T00:43:31;10.70;;;1.60;;
70369;SDS011;57790;51.356;-2.906;2024-02-04T00:46:32;8.80;;;1.40;;
70369;SDS011;57790;51.356;-2.906;2024-02-04T00:49:32;7.57;;;1.97;;
70369;SDS011;57790;51.356;-2.906;2024-02-04T00:52:33;8.07;;;1.27;;
70369;SDS011;57790;51.356;-2.906;2024-02-04T00:55:33;7.80;;;1.37;;
70369;SDS011;57790;51.356;-2.906;2024-02-04T00:58:33;5.93;;;1.10;;
70369;SDS011;57790;51.356;-2.906;2024-02-04T01:01:34;6.47;;;1.10;;
70369;SDS011;57790;51.356;-2.906;2024-02-04T01:04:34;4.20;;;1.20;;
70369;SDS011;57790;51.356;-2.906;2024-02-04T01:07:34;6.63;;;1.20;;
70369;SDS011;57790;51.356;-2.906;2024-02-04T01:10:35;8.93;;;1.40;;
70369;SDS011;57790;51.356;-2.906;2024-02-04T01:13:35;8.30;;;1.17;;
70369;SDS011;57790;51.356;-2.906;2024-02-04T01:16:36;10.73;;;1.40;;
70369;SDS011;57790;51.356;-2.906;2024-02-04T01:19:36;7.13;;;1.20;;
70369;SDS011;57790;51.356;-2.906;2024-02-04T01:22:37;9.03;;;1.23;;
70369;SDS011;57790;51.356;-2.906;2024-02-04T01:25:37;6.97;;;1.10;;
70369;SDS011;57790;51.356;-2.906;2024-02-04T01:28:37;7.53;;;1.43;;
70369;SDS011;57790;51.356;-2.906;2024-02-04T01:31:38;10.47;;;1.40;;
70369;SDS011;57790;51.356;-2.906;2024-02-04T01:34:38;7.35;;;1.10;;
70369;SDS011;57790;51.356;-2.906;2024-02-04T01:37:44;9.47;;;1.37;;
70369;SDS011;57790;51.356;-2.906;2024-02-04T01:40:48;8.20;;;1.30;;
70369;SDS011;57790;51.356;-2.906;2024-02-04T01:43:51;6.53;;;0.98;;
70369;SDS011;57790;51.356;-2.906;2024-02-04T01:46:51;9.10;;;1.40;;
70369;SDS011;57790;51.356;-2.906;2024-02-04T01:49:52;8.07;;;1.30;;
70369;SDS011;57790;51.356;-2.906;2024-02-04T01:52:52;9.48;;;1.33;;
70369;SDS011;57790;51.356;-2.906;2024-02-04T01:55:53;10.17;;;1.60;;
70369;SDS011;57790;51.356;-2.906;2024-02-04T01:58:55;7.95;;;1.30;;
70369;SDS011;57790;51.356;-2.906;2024-02-04T02:02:01;9.50;;;1.20;;
70369;SDS011;57790;51.356;-2.906;2024-02-04T02:05:02;7.75;;;1.35;;
70369;SDS011;57790;51.356;-2.906;2024-02-04T02:08:03;6.18;;;1.20;;
70369;SDS011;57790;51.356;-2.906;2024-02-04T02:11:10;10.20;;;1.57;;
70369;SDS011;57790;51.356;-2.906;2024-02-04T02:14:18;6.72;;;1.10;;
70369;SDS011;57790;51.356;-2.906;2024-02-04T02:17:24;8.68;;;1.33;;
70369;SDS011;57790;51.356;-2.906;2024-02-04T02:20:47;7.40;;;1.17;;
70369;SDS011;57790;51.356;-2.906;2024-02-04T02:24:03;5.53;;;1.10;;
70369;SDS011;57790;51.356;-2.906;2024-02-04T02:27:14;5.40;;;1.00;;
70369;SDS011;57790;51.356;-2.906;2024-02-04T02:30:14;5.90;;;0.93;;
70369;SDS011;57790;51.356;-2.906;2024-02-04T02:33:16;6.28;;;0.82;;
70369;SDS011;57790;51.356;-2.906;2024-02-04T02:36:19;5.07;;;0.90;;
70369;SDS011;57790;51.356;-2.906;2024-02-04T02:39:23;7.83;;;1.10;;
70369;SDS011;57790;51.356;-2.906;2024-02-04T02:42:27;7.73;;;1.00;;
70369;SDS011;57790;51.356;-2.906;2024-02-04T02:45:29;6.13;;;0.82;;
70369;SDS011;57790;51.356;-2.906;2024-02-04T02:48:31;3.95;;;0.90;;
70369;SDS011;57790;51.356;-2.906;2024-02-04T02:51:32;5.70;;;0.90;;
70369;SDS011;57790;51.356;-2.906;2024-02-04T02:54:32;6.07;;;1.00;;
70369;SDS011;57790;51.356;-2.906;2024-02-04T02:57:33;4.60;;;0.95;;
70369;SDS011;57790;51.356;-2.906;2024-02-04T03:00:34;5.63;;;0.90;;
70369;SDS011;57790;51.356;-2.906;2024-02-04T03:03:34;6.33;;;1.00;;
70369;SDS011;57790;51.356;-2.906;2024-02-04T03:06:35;6.13;;;0.93;;
70369;SDS011;57790;51.356;-2.906;2024-02-04T03:09:35;5.47;;;1.20;;
70369;SDS011;57790;51.356;-2.906;2024-02-04T03:12:35;7.67;;;1.00;;
70369;SDS011;57790;51.356;-2.906;2024-02-04T03:15:36;5.97;;;0.93;;
70369;SDS011;57790;51.356;-2.906;2024-02-04T03:18:38;5.60;;;0.83;;
70369;SDS011;57790;51.356;-2.906;2024-02-04T03:21:39;5.97;;;1.00;;
70369;SDS011;57790;51.356;-2.906;2024-02-04T03:24:40;7.40;;;0.90;;
70369;SDS011;57790;51.356;-2.906;2024-02-04T03:27:40;5.20;;;1.07;;
70369;SDS011;57790;51.356;-2.906;2024-02-04T03:30:41;6.77;;;1.20;;
70369;SDS011;57790;51.356;-2.906;2024-02-04T03:33:41;4.20;;;0.80;;
70369;SDS011;57790;51.356;-2.906;2024-02-04T03:36:41;4.05;;;0.70;;
70369;SDS011;57790;51.356;-2.906;2024-02-04T03:39:42;5.87;;;0.90;;
70369;SDS011;57790;51.356;-2.906;2024-02-04T03:42:42;4.43;;;0.70;;
70369;SDS011;57790;51.356;-2.906;2024-02-04T03:45:43;6.47;;;0.80;;
70369;SDS011;57790;51.356;-2.906;2024-02-04T03:48:43;5.50;;;0.80;;
70369;SDS011;57790;51.356;-2.906;2024-02-04T03:51:44;5.20;;;1.07;;
70369;SDS011;57790;51.356;-2.906;2024-02-04T03:54:44;5.70;;;0.70;;
70369;SDS011;57790;51.356;-2.906;2024-02-04T03:57:44;3.80;;;0.80;;
70369;SDS011;57790;51.356;-2.906;2024-02-04T04:00:45;4.33;;;0.80;;
70369;SDS011;57790;51.356;-2.906;2024-02-04T04:03:45;5.53;;;0.80;;
70369;SDS011;57790;51.356;-2.906;2024-02-04T04:06:46;4.87;;;0.70;;
70369;SDS011;57790;51.356;-2.906;2024-02-04T04:09:46;4.72;;;0.90;;
70369;SDS011;57790;51.356;-2.906;2024-02-04T04:12:47;7.80;;;1.10;;
70369;SDS011;57790;51.356;-2.906;2024-02-04T04:15:47;3.93;;;0.70;;
70369;SDS011;57790;51.356;-2.906;2024-02-04T04:18:48;4.22;;;1.10;;
70369;SDS011;57790;51.356;-2.906;2024-02-04T04:21:49;3.00;;;0.53;;
70369;SDS011;57790;51.356;-2.906;2024-02-04T04:24:49;5.57;;;0.75;;
70369;SDS011;57790;51.356;-2.906;2024-02-04T04:27:50;3.07;;;0.60;;
70369;SDS011;57790;51.356;-2.906;2024-02-04T04:30:50;3.77;;;0.60;;
70369;SDS011;57790;51.356;-2.906;2024-02-04T04:33:50;4.17;;;0.60;;
70369;SDS011;57790;51.356;-2.906;2024-02-04T04:36:53;7.07;;;1.00;;
70369;SDS011;57790;51.356;-2.906;2024-02-04T04:39:54;4.13;;;0.90;;
70369;SDS011;57790;51.356;-2.906;2024-02-04T04:42:54;4.70;;;0.80;;
70369;SDS011;57790;51.356;-2.906;2024-02-04T04:45:54;5.43;;;0.83;;
70369;SDS011;57790;51.356;-2.906;2024-02-04T04:48:55;5.33;;;0.70;;
70369;SDS011;57790;51.356;-2.906;2024-02-04T04:51:58;4.20;;;0.80;;
70369;SDS011;57790;51.356;-2.906;2024-02-04T04:54:58;4.47;;;0.87;;
70369;SDS011;57790;51.356;-2.906;2024-02-04T04:57:58;4.90;;;0.77;;
70369;SDS011;57790;51.356;-2.906;2024-02-04T05:00:59;4.27;;;0.70;;
70369;SDS011;57790;51.356;-2.906;2024-02-04T05:03:59;5.90;;;0.97;;
70369;SDS011;57790;51.356;-2.906;2024-02-04T05:07:00;5.72;;;0.90;;
70369;SDS011;57790;51.356;-2.906;2024-02-04T05:10:01;7.07;;;1.10;;
70369;SDS011;57790;51.356;-2.906;2024-02-04T05:13:01;4.53;;;0.90;;
70369;SDS011;57790;51.356;-2.906;2024-02-04T05:16:01;7.53;;;0.97;;
70369;SDS011;57790;51.356;-2.906;2024-02-04T05:19:02;4.88;;;0.95;;
70369;SDS011;57790;51.356;-2.906;2024-02-04T05:22:03;7.53;;;1.07;;
70369;SDS011;57790;51.356;-2.906;2024-02-04T05:25:03;7.07;;;0.90;;
70369;SDS011;57790;51.356;-2.906;2024-02-04T05:28:06;7.53;;;1.20;;
70369;SDS011;57790;51.356;-2.906;2024-02-04T05:31:06;5.68;;;1.00;;
70369;SDS011;57790;51.356;-2.906;2024-02-04T05:34:07;5.40;;;0.80;;
70369;SDS011;57790;51.356;-2.906;2024-02-04T05:37:07;6.67;;;0.90;;
70369;SDS011;57790;51.356;-2.906;2024-02-04T05:40:08;6.00;;;0.60;;
70369;SDS011;57790;51.356;-2.906;2024-02-04T05:43:08;6.37;;;1.13;;
70369;SDS011;57790;51.356;-2.906;2024-02-04T05:46:10;5.30;;;0.70;;
70369;SDS011;57790;51.356;-2.906;2024-02-04T05:49:10;7.03;;;0.80;;
70369;SDS011;57790;51.356;-2.906;2024-02-04T05:52:11;3.17;;;0.60;;
70369;SDS011;57790;51.356;-2.906;2024-02-04T05:55:12;5.22;;;0.60;;
70369;SDS011;57790;51.356;-2.906;2024-02-04T05:58:12;7.17;;;0.73;;
70369;SDS011;57790;51.356;-2.906;2024-02-04T06:01:14;7.00;;;0.88;;
70369;SDS011;57790;51.356;-2.906;2024-02-04T06:04:15;5.13;;;0.88;;
70369;SDS011;57790;51.356;-2.906;2024-02-04T06:07:16;5.87;;;0.80;;
70369;SDS011;57790;51.356;-2.906;2024-02-04T06:10:16;5.23;;;1.20;;
70369;SDS011;57790;51.356;-2.906;2024-02-04T06:13:18;5.30;;;0.70;;
70369;SDS011;57790;51.356;-2.906;2024-02-04T06:16:19;4.47;;;0.77;;
70369;SDS011;57790;51.356;-2.906;2024-02-04T06:19:19;5.70;;;0.97;;
70369;SDS011;57790;51.356;-2.906;2024-02-04T06:22:19;5.30;;;0.60;;
70369;SDS011;57790;51.356;-2.906;2024-02-04T06:25:20;5.43;;;0.70;;
70369;SDS011;57790;51.356;-2.906;2024-02-04T06:28:20;4.80;;;0.63;;
70369;SDS011;57790;51.356;-2.906;2024-02-04T06:31:21;3.37;;;0.60;;
70369;SDS011;57790;51.356;-2.906;2024-02-04T06:34:21;4.15;;;0.50;;
70369;SDS011;57790;51.356;-2.906;2024-02-04T06:37:22;5.37;;;0.70;;
70369;SDS011;57790;51.356;-2.906;2024-02-04T06:40:22;4.77;;;0.70;;
70369;SDS011;57790;51.356;-2.906;2024-02-04T06:43:23;4.90;;;0.80;;
70369;SDS011;57790;51.356;-2.906;2024-02-04T06:46:24;5.93;;;0.73;;
70369;SDS011;57790;51.356;-2.906;2024-02-04T06:49:26;5.30;;;0.80;;
70369;SDS011;57790;51.356;-2.906;2024-02-04T06:52:26;6.57;;;0.70;;
70369;SDS011;57790;51.356;-2.906;2024-02-04T06:55:27;3.37;;;0.87;;
70369;SDS011;57790;51.356;-2.906;2024-02-04T06:58:27;5.00;;;0.80;;
70369;SDS011;57790;51.356;-2.906;2024-02-04T07:01:28;4.57;;;0.90;;
70369;SDS011;57790;51.356;-2.906;2024-02-04T07:04:28;8.80;;;0.80;;
70369;SDS011;57790;51.356;-2.906;2024-02-04T07:07:29;7.73;;;1.20;;
70369;SDS011;57790;51.356;-2.906;2024-02-04T07:10:29;3.17;;;0.87;;
70369;SDS011;57790;51.356;-2.906;2024-02-04T07:13:29;8.47;;;1.20;;
70369;SDS011;57790;51.356;-2.906;2024-02-04T07:16:30;9.33;;;1.10;;
70369;SDS011;57790;51.356;-2.906;2024-02-04T07:19:30;7.75;;;1.15;;
70369;SDS011;57790;51.356;-2.906;2024-02-04T07:22:30;11.33;;;1.30;;
70369;SDS011;57790;51.356;-2.906;2024-02-04T07:25:31;6.90;;;1.00;;
70369;SDS011;57790;51.356;-2.906;2024-02-04T07:28:32;11.18;;;1.30;;
70369;SDS011;57790;51.356;-2.906;2024-02-04T07:31:32;8.43;;;1.50;;
70369;SDS011;57790;51.356;-2.906;2024-02-04T07:34:37;6.93;;;1.10;;
70369;SDS011;57790;51.356;-2.906;2024-02-04T07:37:38;6.47;;;1.03;;
70369;SDS011;57790;51.356;-2.906;2024-02-04T07:40:38;10.57;;;1.40;;
70369;SDS011;57790;51.356;-2.906;2024-02-04T07:43:38;6.70;;;1.10;;
70369;SDS011;57790;51.356;-2.906;2024-02-04T07:46:39;8.63;;;0.93;;
70369;SDS011;57790;51.356;-2.906;2024-02-04T07:49:39;9.60;;;1.10;;
70369;SDS011;57790;51.356;-2.906;2024-02-04T07:52:39;10.40;;;1.37;;
70369;SDS011;57790;51.356;-2.906;2024-02-04T07:55:40;8.90;;;1.20;;
70369;SDS011;57790;51.356;-2.906;2024-02-04T07:58:40;5.70;;;1.20;;
70369;SDS011;57790;51.356;-2.906;2024-02-04T08:01:41;10.63;;;1.10;;
70369;SDS011;57790;51.356;-2.906;2024-02-04T08:04:41;8.10;;;1.13;;
70369;SDS011;57790;51.356;-2.906;2024-02-04T08:07:41;9.83;;;1.13;;
70369;SDS011;57790;51.356;-2.906;2024-02-04T08:10:42;10.93;;;1.20;;
70369;SDS011;57790;51.356;-2.906;2024-02-04T08:13:42;8.53;;;1.50;;
70369;SDS011;57790;51.356;-2.906;2024-02-04T08:16:44;8.73;;;1.48;;
70369;SDS011;57790;51.356;-2.906;2024-02-04T08:19:46;9.65;;;1.38;;
70369;SDS011;57790;51.356;-2.906;2024-02-04T08:22:47;11.17;;;1.10;;
70369;SDS011;57790;51.356;-2.906;2024-02-04T08:25:48;6.97;;;1.05;;
70369;SDS011;57790;51.356;-2.906;2024-02-04T08:28:50;5.97;;;1.48;;
70369;SDS011;57790;51.356;-2.906;2024-02-04T08:31:52;8.30;;;1.37;;
70369;SDS011;57790;51.356;-2.906;2024-02-04T08:34:55;8.88;;;1.70;;
70369;SDS011;57790;51.356;-2.906;2024-02-04T08:37:55;11.30;;;1.23;;
70369;SDS011;57790;51.356;-2.906;2024-02-04T08:40:58;9.00;;;1.20;;
70369;SDS011;57790;51.356;-2.906;2024-02-04T08:43:58;10.93;;;1.17;;
70369;SDS011;57790;51.356;-2.906;2024-02-04T08:46:59;7.87;;;1.30;;
70369;SDS011;57790;51.356;-2.906;2024-02-04T08:50:02;9.17;;;1.27;;
70369;SDS011;57790;51.356;-2.906;2024-02-04T08:53:03;13.43;;;1.80;;
70369;SDS011;57790;51.356;-2.906;2024-02-04T08:56:04;10.87;;;1.27;;
70369;SDS011;57790;51.356;-2.906;2024-02-04T08:59:06;9.82;;;1.17;;
70369;SDS011;57790;51.356;-2.906;2024-02-04T09:02:07;8.68;;;1.27;;
70369;SDS011;57790;51.356;-2.906;2024-02-04T09:05:08;8.63;;;1.03;;
70369;SDS011;57790;51.356;-2.906;2024-02-04T09:08:08;7.23;;;1.47;;
70369;SDS011;57790;51.356;-2.906;2024-02-04T09:11:10;8.82;;;1.30;;
70369;SDS011;57790;51.356;-2.906;2024-02-04T09:14:12;8.02;;;1.40;;
70369;SDS011;57790;51.356;-2.906;2024-02-04T09:17:13;10.13;;;1.03;;
70369;SDS011;57790;51.356;-2.906;2024-02-04T09:20:13;11.02;;;1.58;;
70369;SDS011;57790;51.356;-2.906;2024-02-04T09:23:15;9.33;;;2.00;;
70369;SDS011;57790;51.356;-2.906;2024-02-04T09:26:15;12.80;;;1.45;;
70369;SDS011;57790;51.356;-2.906;2024-02-04T09:29:16;11.20;;;1.13;;
70369;SDS011;57790;51.356;-2.906;2024-02-04T09:32:16;9.20;;;1.37;;
70369;SDS011;57790;51.356;-2.906;2024-02-04T09:35:17;11.13;;;1.60;;
70369;SDS011;57790;51.356;-2.906;2024-02-04T09:38:17;8.57;;;1.07;;
70369;SDS011;57790;51.356;-2.906;2024-02-04T09:41:18;7.07;;;1.20;;
70369;SDS011;57790;51.356;-2.906;2024-02-04T09:44:18;8.73;;;1.50;;
70369;SDS011;57790;51.356;-2.906;2024-02-04T09:47:20;6.55;;;1.13;;
70369;SDS011;57790;51.356;-2.906;2024-02-04T09:50:20;11.10;;;1.60;;
70369;SDS011;57790;51.356;-2.906;2024-02-04T09:53:21;9.17;;;1.40;;
70369;SDS011;57790;51.356;-2.906;2024-02-04T09:56:32;10.40;;;1.58;;
70369;SDS011;57790;51.356;-2.906;2024-02-04T09:59:34;7.63;;;1.50;;
70369;SDS011;57790;51.356;-2.906;2024-02-04T10:02:35;12.87;;;1.50;;
70369;SDS011;57790;51.356;-2.906;2024-02-04T10:05:36;9.05;;;1.60;;
70369;SDS011;57790;51.356;-2.906;2024-02-04T10:08:36;9.67;;;1.30;;
70369;SDS011;57790;51.356;-2.906;2024-02-04T10:11:37;11.35;;;1.50;;
70369;SDS011;57790;51.356;-2.906;2024-02-04T10:14:38;9.63;;;1.60;;
70369;SDS011;57790;51.356;-2.906;2024-02-04T10:17:41;10.93;;;1.57;;
70369;SDS011;57790;51.356;-2.906;2024-02-04T10:20:43;7.82;;;1.38;;
70369;SDS011;57790;51.356;-2.906;2024-02-04T10:23:44;7.97;;;1.40;;
70369;SDS011;57790;51.356;-2.906;2024-02-04T10:26:44;9.90;;;1.08;;
70369;SDS011;57790;51.356;-2.906;2024-02-04T10:29:46;6.60;;;1.10;;
70369;SDS011;57790;51.356;-2.906;2024-02-04T10:32:49;7.20;;;1.00;;
70369;SDS011;57790;51.356;-2.906;2024-02-04T10:35:50;7.88;;;1.25;;
70369;SDS011;57790;51.356;-2.906;2024-02-04T10:38:51;4.33;;;1.50;;
70369;SDS011;57790;51.356;-2.906;2024-02-04T10:41:52;6.87;;;1.00;;
70369;SDS011;57790;51.356;-2.906;2024-02-04T10:44:53;5.95;;;0.82;;
70369;SDS011;57790;51.356;-2.906;2024-02-04T10:47:57;8.20;;;1.30;;
70369;SDS011;57790;51.356;-2.906;2024-02-04T10:51:02;4.83;;;0.70;;
70369;SDS011;57790;51.356;-2.906;2024-02-04T10:54:02;8.77;;;0.98;;
70369;SDS011;57790;51.356;-2.906;2024-02-04T10:57:05;4.97;;;1.00;;
70369;SDS011;57790;51.356;-2.906;2024-02-04T11:00:10;4.87;;;0.80;;
70369;SDS011;57790;51.356;-2.906;2024-02-04T11:03:12;8.55;;;0.88;;
70369;SDS011;57790;51.356;-2.906;2024-02-04T11:06:15;6.25;;;0.90;;
70369;SDS011;57790;51.356;-2.906;2024-02-04T11:09:16;8.30;;;1.20;;
70369;SDS011;57790;51.356;-2.906;2024-02-04T11:12:18;4.70;;;0.83;;
70369;SDS011;57790;51.356;-2.906;2024-02-04T11:15:21;10.83;;;1.43;;
70369;SDS011;57790;51.356;-2.906;2024-02-04T11:18:42;3.70;;;0.90;;
70369;SDS011;57790;51.356;-2.906;2024-02-04T11:28:49;3.33;;;0.73;;
70369;SDS011;57790;51.356;-2.906;2024-02-04T11:31:49;6.27;;;1.00;;
70369;SDS011;57790;51.356;-2.906;2024-02-04T11:34:51;8.47;;;1.20;;
70369;SDS011;57790;51.356;-2.906;2024-02-04T11:37:54;7.77;;;0.80;;
70369;SDS011;57790;51.356;-2.906;2024-02-04T11:40:56;2.50;;;0.47;;
70369;SDS011;57790;51.356;-2.906;2024-02-04T11:43:57;4.22;;;0.95;;
70369;SDS011;57790;51.356;-2.906;2024-02-04T11:46:59;6.68;;;0.95;;
70369;SDS011;57790;51.356;-2.906;2024-02-04T11:50:00;4.97;;;0.80;;
70369;SDS011;57790;51.356;-2.906;2024-02-04T11:56:11;7.32;;;1.00;;
70369;SDS011;57790;51.356;-2.906;2024-02-04T11:59:12;3.22;;;0.73;;
70369;SDS011;57790;51.356;-2.906;2024-02-04T12:02:17;4.03;;;0.75;;
70369;SDS011;57790;51.356;-2.906;2024-02-04T12:05:17;7.70;;;1.20;;
70369;SDS011;57790;51.356;-2.906;2024-02-04T12:08:18;7.60;;;1.10;;
70369;SDS011;57790;51.356;-2.906;2024-02-04T12:11:19;6.70;;;0.80;;
70369;SDS011;57790;51.356;-2.906;2024-02-04T12:14:21;6.78;;;0.88;;
70369;SDS011;57790;51.356;-2.906;2024-02-04T12:17:22;5.93;;;1.00;;
70369;SDS011;57790;51.356;-2.906;2024-02-04T12:20:22;7.57;;;0.88;;
70369;SDS011;57790;51.356;-2.906;2024-02-04T12:23:23;5.60;;;0.80;;
70369;SDS011;57790;51.356;-2.906;2024-02-04T12:26:23;6.90;;;1.10;;
70369;SDS011;57790;51.356;-2.906;2024-02-04T12:29:24;5.00;;;0.70;;
70369;SDS011;57790;51.356;-2.906;2024-02-04T12:32:24;5.32;;;0.80;;
70369;SDS011;57790;51.356;-2.906;2024-02-04T12:35:25;5.40;;;0.90;;
70369;SDS011;57790;51.356;-2.906;2024-02-04T12:38:27;4.32;;;0.77;;
70369;SDS011;57790;51.356;-2.906;2024-02-04T12:41:28;4.63;;;0.80;;
70369;SDS011;57790;51.356;-2.906;2024-02-04T12:44:29;7.00;;;1.05;;
70369;SDS011;57790;51.356;-2.906;2024-02-04T12:47:30;4.63;;;0.93;;
70369;SDS011;57790;51.356;-2.906;2024-02-04T12:50:30;5.63;;;1.00;;
70369;SDS011;57790;51.356;-2.906;2024-02-04T12:53:33;7.38;;;0.90;;
70369;SDS011;57790;51.356;-2.906;2024-02-04T12:56:46;6.60;;;0.77;;
70369;SDS011;57790;51.356;-2.906;2024-02-04T13:00:03;6.07;;;0.88;;
70369;SDS011;57790;51.356;-2.906;2024-02-04T13:03:05;6.68;;;0.70;;
70369;SDS011;57790;51.356;-2.906;2024-02-04T13:06:10;4.85;;;0.90;;
70369;SDS011;57790;51.356;-2.906;2024-02-04T13:09:11;8.13;;;0.90;;
70369;SDS011;57790;51.356;-2.906;2024-02-04T13:12:16;5.50;;;0.70;;
70369;SDS011;57790;51.356;-2.906;2024-02-04T13:15:17;6.27;;;0.90;;
70369;SDS011;57790;51.356;-2.906;2024-02-04T13:18:17;7.33;;;0.87;;
70369;SDS011;57790;51.356;-2.906;2024-02-04T13:21:18;3.43;;;0.70;;
70369;SDS011;57790;51.356;-2.906;2024-02-04T13:24:21;4.10;;;0.70;;
70369;SDS011;57790;51.356;-2.906;2024-02-04T13:27:21;8.03;;;1.13;;
70369;SDS011;57790;51.356;-2.906;2024-02-04T13:30:22;7.68;;;0.80;;
70369;SDS011;57790;51.356;-2.906;2024-02-04T13:33:22;8.10;;;1.07;;
70369;SDS011;57790;51.356;-2.906;2024-02-04T13:36:23;5.73;;;0.90;;
70369;SDS011;57790;51.356;-2.906;2024-02-04T13:39:23;7.13;;;1.37;;
70369;SDS011;57790;51.356;-2.906;2024-02-04T13:42:24;7.03;;;0.90;;
70369;SDS011;57790;51.356;-2.906;2024-02-04T13:45:24;5.67;;;1.00;;
70369;SDS011;57790;51.356;-2.906;2024-02-04T13:48:25;8.77;;;0.90;;
70369;SDS011;57790;51.356;-2.906;2024-02-04T13:51:26;9.93;;;1.50;;
70369;SDS011;57790;51.356;-2.906;2024-02-04T13:54:26;6.07;;;1.07;;
70369;SDS011;57790;51.356;-2.906;2024-02-04T13:57:26;7.13;;;1.17;;
70369;SDS011;57790;51.356;-2.906;2024-02-04T14:00:27;10.07;;;1.20;;
70369;SDS011;57790;51.356;-2.906;2024-02-04T14:03:27;11.03;;;1.87;;
70369;SDS011;57790;51.356;-2.906;2024-02-04T14:06:28;9.57;;;1.30;;
70369;SDS011;57790;51.356;-2.906;2024-02-04T14:09:28;11.93;;;1.20;;
70369;SDS011;57790;51.356;-2.906;2024-02-04T14:12:29;7.27;;;1.50;;
70369;SDS011;57790;51.356;-2.906;2024-02-04T14:15:30;8.82;;;1.52;;
70369;SDS011;57790;51.356;-2.906;2024-02-04T14:18:31;10.83;;;1.53;;
70369;SDS011;57790;51.356;-2.906;2024-02-04T14:21:31;13.93;;;1.58;;
70369;SDS011;57790;51.356;-2.906;2024-02-04T14:24:32;9.83;;;1.47;;
70369;SDS011;57790;51.356;-2.906;2024-02-04T14:27:33;11.10;;;1.70;;
70369;SDS011;57790;51.356;-2.906;2024-02-04T14:30:33;11.40;;;1.60;;
70369;SDS011;57790;51.356;-2.906;2024-02-04T14:33:34;10.17;;;1.70;;
70369;SDS011;57790;51.356;-2.906;2024-02-04T14:36:34;10.60;;;1.70;;
70369;SDS011;57790;51.356;-2.906;2024-02-04T14:39:34;10.93;;;1.53;;
70369;SDS011;57790;51.356;-2.906;2024-02-04T14:42:35;10.63;;;1.60;;
70369;SDS011;57790;51.356;-2.906;2024-02-04T14:45:35;12.30;;;1.60;;
70369;SDS011;57790;51.356;-2.906;2024-02-04T14:48:36;10.60;;;1.73;;
70369;SDS011;57790;51.356;-2.906;2024-02-04T14:51:40;15.02;;;1.60;;
70369;SDS011;57790;51.356;-2.906;2024-02-04T14:54:41;13.18;;;1.90;;
70369;SDS011;57790;51.356;-2.906;2024-02-04T14:57:41;14.37;;;2.00;;
70369;SDS011;57790;51.356;-2.906;2024-02-04T15:00:42;9.87;;;1.80;;
70369;SDS011;57790;51.356;-2.906;2024-02-04T15:03:42;9.80;;;1.70;;
70369;SDS011;57790;51.356;-2.906;2024-02-04T15:06:42;10.50;;;1.93;;
70369;SDS011;57790;51.356;-2.906;2024-02-04T15:09:44;16.13;;;1.98;;
70369;SDS011;57790;51.356;-2.906;2024-02-04T15:12:44;10.30;;;1.90;;
70369;SDS011;57790;51.356;-2.906;2024-02-04T15:15:45;11.65;;;2.00;;
70369;SDS011;57790;51.356;-2.906;2024-02-04T15:18:46;10.77;;;1.90;;
70369;SDS011;57790;51.356;-2.906;2024-02-04T15:21:46;12.20;;;1.73;;
70369;SDS011;57790;51.356;-2.906;2024-02-04T15:24:47;12.27;;;1.83;;
70369;SDS011;57790;51.356;-2.906;2024-02-04T15:27:48;12.97;;;1.90;;
70369;SDS011;57790;51.356;-2.906;2024-02-04T15:30:51;13.85;;;2.03;;
70369;SDS011;57790;51.356;-2.906;2024-02-04T15:33:52;15.10;;;1.98;;
70369;SDS011;57790;51.356;-2.906;2024-02-04T15:36:53;14.27;;;2.50;;
70369;SDS011;57790;51.356;-2.906;2024-02-04T15:39:53;15.63;;;2.10;;
70369;SDS011;57790;51.356;-2.906;2024-02-04T15:42:55;17.08;;;2.33;;
70369;SDS011;57790;51.356;-2.906;2024-02-04T15:45:55;14.07;;;2.30;;
70369;SDS011;57790;51.356;-2.906;2024-02-04T15:48:58;12.25;;;1.88;;
70369;SDS011;57790;51.356;-2.906;2024-02-04T15:51:59;12.32;;;2.30;;
70369;SDS011;57790;51.356;-2.906;2024-02-04T15:55:00;13.75;;;2.00;;
70369;SDS011;57790;51.356;-2.906;2024-02-04T15:58:01;12.63;;;1.90;;
70369;SDS011;57790;51.356;-2.906;2024-02-04T16:01:10;12.57;;;2.10;;
70369;SDS011;57790;51.356;-2.906;2024-02-04T16:04:12;12.07;;;2.38;;
70369;SDS011;57790;51.356;-2.906;2024-02-04T16:07:16;13.57;;;2.03;;
70369;SDS011;57790;51.356;-2.906;2024-02-04T16:10:18;10.77;;;2.20;;
70369;SDS011;57790;51.356;-2.906;2024-02-04T16:13:20;12.00;;;1.77;;
70369;SDS011;57790;51.356;-2.906;2024-02-04T16:16:29;11.80;;;2.13;;
70369;SDS011;57790;51.356;-2.906;2024-02-04T16:19:35;11.75;;;2.13;;
70369;SDS011;57790;51.356;-2.906;2024-02-04T16:22:36;10.23;;;2.20;;
70369;SDS011;57790;51.356;-2.906;2024-02-04T16:25:37;12.10;;;2.30;;
70369;SDS011;57790;51.356;-2.906;2024-02-04T16:28:37;12.97;;;2.00;;
70369;SDS011;57790;51.356;-2.906;2024-02-04T16:31:38;13.77;;;2.17;;
70369;SDS011;57790;51.356;-2.906;2024-02-04T16:34:39;15.30;;;2.70;;
70369;SDS011;57790;51.356;-2.906;2024-02-04T16:37:40;12.55;;;2.10;;
70369;SDS011;57790;51.356;-2.906;2024-02-04T16:40:40;14.70;;;2.30;;
70369;SDS011;57790;51.356;-2.906;2024-02-04T16:43:44;13.15;;;2.45;;
70369;SDS011;57790;51.356;-2.906;2024-02-04T16:46:45;14.17;;;2.47;;
70369;SDS011;57790;51.356;-2.906;2024-02-04T16:49:45;18.83;;;2.40;;
70369;SDS011;57790;51.356;-2.906;2024-02-04T16:52:47;15.85;;;2.28;;
70369;SDS011;57790;51.356;-2.906;2024-02-04T16:55:47;14.07;;;2.60;;
70369;SDS011;57790;51.356;-2.906;2024-02-04T16:58:48;18.30;;;2.43;;
70369;SDS011;57790;51.356;-2.906;2024-02-04T17:01:49;17.20;;;2.88;;
70369;SDS011;57790;51.356;-2.906;2024-02-04T17:04:51;21.40;;;2.45;;
70369;SDS011;57790;51.356;-2.906;2024-02-04T17:07:52;13.60;;;2.37;;
70369;SDS011;57790;51.356;-2.906;2024-02-04T17:10:53;17.43;;;2.30;;
70369;SDS011;57790;51.356;-2.906;2024-02-04T17:13:55;13.32;;;1.98;;
70369;SDS011;57790;51.356;-2.906;2024-02-04T17:20:11;15.55;;;2.17;;
70369;SDS011;57790;51.356;-2.906;2024-02-04T17:23:19;12.57;;;2.05;;
70369;SDS011;57790;51.356;-2.906;2024-02-04T17:26:21;17.30;;;2.90;;
70369;SDS011;57790;51.356;-2.906;2024-02-04T17:29:28;15.03;;;2.27;;
70369;SDS011;57790;51.356;-2.906;2024-02-04T17:32:28;21.30;;;2.20;;
70369;SDS011;57790;51.356;-2.906;2024-02-04T17:35:31;18.95;;;2.28;;
70369;SDS011;57790;51.356;-2.906;2024-02-04T17:38:32;17.47;;;2.47;;
70369;SDS011;57790;51.356;-2.906;2024-02-04T17:41:32;12.30;;;2.10;;
70369;SDS011;57790;51.356;-2.906;2024-02-04T17:44:32;17.87;;;2.40;;
70369;SDS011;57790;51.356;-2.906;2024-02-04T17:47:34;17.00;;;2.42;;
70369;SDS011;57790;51.356;-2.906;2024-02-04T17:50:35;16.40;;;2.28;;
70369;SDS011;57790;51.356;-2.906;2024-02-04T17:53:35;17.60;;;2.40;;
70369;SDS011;57790;51.356;-2.906;2024-02-04T17:56:36;20.07;;;3.10;;
70369;SDS011;57790;51.356;-2.906;2024-02-04T17:59:36;18.67;;;2.53;;
70369;SDS011;57790;51.356;-2.906;2024-02-04T18:02:36;21.27;;;2.90;;
70369;SDS011;57790;51.356;-2.906;2024-02-04T18:05:37;18.98;;;2.42;;